Time;durP1;ratioP1;P1;durP2;ratioP2;P2;SDS_P1;SDS_P2;PMS_P1;PMS_P2;Temp;Humidity;BMP_temperature;BMP_pressure;BME280_temperature;BME280_humidity;BME280_pressure;Samples;Min_cycle;Max_cycle;Signal;HPM_P1;HPM_P2
2021/11/25 00:00:31;;;;;;;;;;;2.70;99.90;;;;;;5073335;28;19929;-48
2021/11/25 00:02:57;;;;;;;;;;;2.60;99.90;;;;;;5073602;28;19928;-48
2021/11/25 00:05:24;;;;;;;;;;;2.60;99.90;;;;;;5072721;28;19925;-48
2021/11/25 00:07:51;;;;;;;;;;;2.70;99.90;;;;;;5073165;28;19924;-48
2021/11/25 00:10:18;;;;;;;;;;;2.70;99.90;;;;;;5072483;28;20383;-49
2021/11/25 00:12:45;;;;;;;;;;;2.80;99.90;;;;;;5073105;28;19928;-47
2021/11/25 00:15:14;;;;;;;;;;;2.70;99.90;;;;;;5071864;28;19948;-48
2021/11/25 00:17:40;;;;;;;;;;;2.80;99.90;;;;;;5072221;28;19989;-47
2021/11/25 00:20:09;;;;;;;;;;;2.90;99.90;;;;;;5073301;28;19986;-48
2021/11/25 00:22:36;;;;;;;;;;;2.90;99.90;;;;;;5072837;28;19931;-49
2021/11/25 00:25:03;;;;;;;;;;;2.80;99.90;;;;;;5073101;28;19929;-48
2021/11/25 00:27:30;;;;;;;;;;;2.90;99.90;;;;;;5071357;28;20291;-47
2021/11/25 00:29:57;;;;;;;;;;;3.00;99.90;;;;;;5064432;28;19928;-48
2021/11/25 00:32:25;;;;;;;;;;;3.00;99.90;;;;;;5067651;28;19929;-48
2021/11/25 00:34:52;;;;;;;;;;;3.10;99.90;;;;;;5072265;28;20459;-48
2021/11/25 00:37:19;;;;;;;;;;;2.90;99.90;;;;;;5069643;28;19924;-48
2021/11/25 00:39:46;;;;;;;;;;;3.00;99.90;;;;;;5072251;28;19924;-48
2021/11/25 00:42:13;;;;;;;;;;;2.70;99.90;;;;;;5070833;28;19925;-47
2021/11/25 00:44:39;;;;;;;;;;;2.80;99.90;;;;;;5072908;28;19925;-49
2021/11/25 00:47:06;;;;;;;;;;;2.90;99.90;;;;;;5072429;28;19924;-49
2021/11/25 00:49:34;;;;;;;;;;;2.80;99.90;;;;;;5071348;28;20334;-49
2021/11/25 00:52:01;;;;;;;;;;;2.90;99.90;;;;;;5070901;28;19928;-49
2021/11/25 00:54:28;;;;;;;;;;;2.90;99.90;;;;;;5073018;28;19928;-49
2021/11/25 00:56:55;;;;;;;;;;;3.00;99.90;;;;;;5072013;28;20043;-48
2021/11/25 00:59:21;;;;;;;;;;;3.10;99.90;;;;;;5070703;28;20390;-49
2021/11/25 01:01:48;;;;;;;;;;;3.20;99.90;;;;;;5061239;28;19933;-49
2021/11/25 01:04:15;;;;;;;;;;;3.00;99.90;;;;;;5062380;28;20076;-48
2021/11/25 01:06:43;;;;;;;;;;;3.10;99.90;;;;;;5072295;28;19924;-49
2021/11/25 01:09:10;;;;;;;;;;;3.00;99.90;;;;;;5073000;28;19968;-49
2021/11/25 01:11:37;;;;;;;;;;;3.10;99.90;;;;;;5071733;28;19940;-49
2021/11/25 01:14:03;;;;;;;;;;;3.20;99.90;;;;;;5071412;28;19970;-49
2021/11/25 01:16:30;;;;;;;;;;;3.20;99.90;;;;;;5071666;28;19977;-49
2021/11/25 01:18:57;;;;;;;;;;;3.20;99.90;;;;;;5071665;28;19924;-48
2021/11/25 01:21:24;;;;;;;;;;;3.30;99.90;;;;;;5071236;28;19978;-49
2021/11/25 01:23:52;;;;;;;;;;;3.40;99.90;;;;;;5071665;28;19924;-49
2021/11/25 01:26:19;;;;;;;;;;;3.40;99.90;;;;;;5076710;28;20373;-49
2021/11/25 01:28:45;;;;;;;;;;;3.20;99.90;;;;;;5072417;28;19974;-49
2021/11/25 01:31:12;;;;;;;;;;;3.30;99.90;;;;;;5071789;28;19924;-50
2021/11/25 01:33:39;;;;;;;;;;;3.30;99.90;;;;;;5071042;28;20678;-49
2021/11/25 01:36:06;;;;;;;;;;;3.20;99.90;;;;;;5072067;28;20390;-49
2021/11/25 01:38:33;;;;;;;;;;;3.20;99.90;;;;;;5072269;28;19978;-49
2021/11/25 01:41:01;;;;;;;;;;;3.30;99.90;;;;;;5072068;28;19924;-49
2021/11/25 01:43:27;;;;;;;;;;;3.30;99.90;;;;;;5071386;28;19925;-49
2021/11/25 01:45:55;;;;;;;;;;;3.20;99.90;;;;;;5071647;28;19924;-48
2021/11/25 01:48:22;;;;;;;;;;;3.20;99.90;;;;;;5071451;28;19924;-48
2021/11/25 01:50:50;;;;;;;;;;;3.20;99.90;;;;;;5071618;28;19935;-48
2021/11/25 01:53:17;;;;;;;;;;;3.10;99.90;;;;;;5071456;28;19990;-49
2021/11/25 01:55:44;;;;;;;;;;;3.10;99.90;;;;;;5071822;28;19978;-48
2021/11/25 01:58:12;;;;;;;;;;;3.10;99.90;;;;;;5071950;28;19925;-49
2021/11/25 02:00:42;;;;;;;;;;;3.00;99.90;;;;;;5072544;28;20364;-49
2021/11/25 02:03:08;;;;;;;;;;;3.10;99.90;;;;;;5070794;28;19990;-49
2021/11/25 02:05:36;;;;;;;;;;;2.90;99.90;;;;;;5071112;28;19978;-49
2021/11/25 02:08:03;;;;;;;;;;;2.90;99.90;;;;;;5071650;28;20390;-49
2021/11/25 02:10:30;;;;;;;;;;;3.00;99.90;;;;;;5067035;28;19970;-49
2021/11/25 02:12:56;;;;;;;;;;;3.10;99.90;;;;;;5070789;28;19925;-48
2021/11/25 02:15:25;;;;;;;;;;;3.10;99.90;;;;;;5070551;28;19931;-49
2021/11/25 02:17:53;;;;;;;;;;;3.20;99.90;;;;;;5071912;28;19924;-48
2021/11/25 02:20:20;;;;;;;;;;;3.20;99.90;;;;;;5070552;28;20664;-49
2021/11/25 02:22:48;;;;;;;;;;;3.20;99.90;;;;;;5071273;28;19978;-49
2021/11/25 02:25:16;;;;;;;;;;;3.10;99.90;;;;;;5071062;28;19954;-49
2021/11/25 02:27:46;;;;;;;;;;;3.10;99.90;;;;;;5056124;28;19971;-48
2021/11/25 02:30:14;;;;;;;;;;;3.10;99.90;;;;;;5062564;28;19994;-49
2021/11/25 02:32:44;;;;;;;;;;;3.20;99.90;;;;;;5073473;28;19931;-49
2021/11/25 02:35:12;;;;;;;;;;;3.20;99.90;;;;;;5081791;28;20011;-48
2021/11/25 02:37:39;;;;;;;;;;;3.20;99.90;;;;;;5075480;28;19974;-49
2021/11/25 02:40:15;;;;;;;;;;;3.10;99.90;;;;;;5117882;22;19931;-54
2021/11/25 02:42:44;;;;;;;;;;;2.90;99.90;;;;;;5111100;28;19927;-53
2021/11/25 02:45:11;;;;;;;;;;;3.10;99.90;;;;;;5115402;28;19924;-55
2021/11/25 02:47:37;;;;;;;;;;;2.90;99.90;;;;;;5115589;28;19923;-54
2021/11/25 02:50:05;;;;;;;;;;;2.90;99.90;;;;;;5116020;28;19924;-53
2021/11/25 02:52:31;;;;;;;;;;;2.90;99.90;;;;;;5096174;28;20409;-54
2021/11/25 02:54:58;;;;;;;;;;;2.90;99.90;;;;;;5096299;28;19928;-53
2021/11/25 02:57:26;;;;;;;;;;;3.10;99.90;;;;;;5103323;28;19924;-55
2021/11/25 02:59:53;;;;;;;;;;;3.10;99.90;;;;;;5113972;28;19985;-55
2021/11/25 03:02:20;;;;;;;;;;;3.20;99.90;;;;;;5099358;28;19924;-53
2021/11/25 03:04:46;;;;;;;;;;;3.20;99.90;;;;;;5098390;28;19977;-53
2021/11/25 03:07:13;;;;;;;;;;;3.30;99.90;;;;;;5099534;28;19976;-55
2021/11/25 03:09:40;;;;;;;;;;;3.20;99.90;;;;;;5096086;28;19981;-54
2021/11/25 03:12:07;;;;;;;;;;;3.20;99.90;;;;;;5114600;28;19924;-54
2021/11/25 03:14:35;;;;;;;;;;;3.20;99.90;;;;;;5097308;28;19928;-54
2021/11/25 03:17:02;;;;;;;;;;;3.20;99.90;;;;;;5081946;28;20348;-54
2021/11/25 03:19:28;;;;;;;;;;;3.30;99.90;;;;;;5092313;28;19924;-54
2021/11/25 03:21:55;;;;;;;;;;;3.30;99.90;;;;;;5096865;28;19928;-53
2021/11/25 03:24:22;;;;;;;;;;;3.30;99.90;;;;;;5094594;28;19924;-54
2021/11/25 03:26:49;;;;;;;;;;;3.40;99.90;;;;;;5082914;28;19925;-54
2021/11/25 03:29:16;;;;;;;;;;;3.40;99.90;;;;;;5095396;28;19924;-53
2021/11/25 03:31:44;;;;;;;;;;;3.50;99.90;;;;;;5111866;28;19924;-53
2021/11/25 03:34:11;;;;;;;;;;;3.50;99.90;;;;;;5098437;28;19980;-55
2021/11/25 03:36:38;;;;;;;;;;;3.50;99.90;;;;;;5111940;28;19923;-54
2021/11/25 03:39:05;;;;;;;;;;;3.50;99.90;;;;;;5101390;28;19924;-54
2021/11/25 03:41:32;;;;;;;;;;;3.50;99.90;;;;;;5096869;28;19924;-55
2021/11/25 03:43:59;;;;;;;;;;;3.50;99.90;;;;;;5103332;28;19928;-53
2021/11/25 03:46:26;;;;;;;;;;;3.50;99.90;;;;;;5113215;28;19973;-53
2021/11/25 03:48:54;;;;;;;;;;;3.30;99.90;;;;;;5095052;28;20271;-54
2021/11/25 03:51:21;;;;;;;;;;;3.40;99.90;;;;;;5094560;28;19924;-54
2021/11/25 03:53:48;;;;;;;;;;;3.50;99.90;;;;;;5109691;28;19925;-53
2021/11/25 03:56:15;;;;;;;;;;;3.60;99.90;;;;;;5114861;28;20578;-53
2021/11/25 03:58:43;;;;;;;;;;;3.60;99.90;;;;;;5099117;28;19928;-54
2021/11/25 04:01:10;;;;;;;;;;;3.60;99.90;;;;;;5094142;28;19925;-53
2021/11/25 04:03:37;;;;;;;;;;;3.40;99.90;;;;;;5094423;28;19977;-54
2021/11/25 04:06:05;;;;;;;;;;;3.50;99.90;;;;;;5099303;28;19928;-52
2021/11/25 04:08:32;;;;;;;;;;;3.60;99.90;;;;;;5096163;28;19932;-52
2021/11/25 04:10:59;;;;;;;;;;;3.60;99.90;;;;;;5093887;28;19924;-52
2021/11/25 04:13:26;;;;;;;;;;;3.70;99.90;;;;;;5097696;28;20286;-52
2021/11/25 04:15:52;;;;;;;;;;;3.70;99.90;;;;;;5103157;28;19969;-52
2021/11/25 04:18:19;;;;;;;;;;;3.50;99.90;;;;;;5093620;28;19924;-52
2021/11/25 04:20:46;;;;;;;;;;;3.70;99.90;;;;;;5105575;28;19924;-52
2021/11/25 04:23:14;;;;;;;;;;;3.60;99.90;;;;;;5100924;28;19924;-52
2021/11/25 04:25:42;;;;;;;;;;;3.60;99.90;;;;;;5108445;28;20654;-52
2021/11/25 04:28:08;;;;;;;;;;;3.40;99.90;;;;;;5101441;28;19924;-52
2021/11/25 04:30:54;;;;;;;;;;;3.10;99.90;;;;;;5112230;28;19931;-52
2021/11/25 04:36:05;;;;;;;;;;;3.30;99.90;;;;;;5092964;28;19930;-52
2021/11/25 04:38:33;;;;;;;;;;;3.40;99.90;;;;;;5093914;28;19978;-52
2021/11/25 04:41:01;;;;;;;;;;;3.40;99.90;;;;;;5085789;28;20275;-52
2021/11/25 04:43:29;;;;;;;;;;;3.20;99.90;;;;;;5094508;28;19924;-53
2021/11/25 04:45:56;;;;;;;;;;;3.30;99.90;;;;;;5106092;28;19924;-52
2021/11/25 04:48:24;;;;;;;;;;;3.10;99.90;;;;;;5112544;28;19924;-52
2021/11/25 04:50:51;;;;;;;;;;;3.20;99.90;;;;;;5110554;28;19928;-52
2021/11/25 04:53:17;;;;;;;;;;;3.30;99.90;;;;;;5111650;28;19912;-51
2021/11/25 04:55:46;;;;;;;;;;;3.20;99.90;;;;;;5103743;28;19936;-52
2021/11/25 04:58:13;;;;;;;;;;;3.00;99.90;;;;;;5096510;28;19939;-52
2021/11/25 05:00:41;;;;;;;;;;;3.00;99.90;;;;;;5087168;28;19928;-52
2021/11/25 05:03:08;;;;;;;;;;;3.20;99.90;;;;;;5074026;28;20008;-52
2021/11/25 05:05:35;;;;;;;;;;;3.30;99.90;;;;;;5091278;28;19928;-52
2021/11/25 05:08:02;;;;;;;;;;;3.40;99.90;;;;;;5094294;28;19982;-51
2021/11/25 05:10:29;;;;;;;;;;;3.50;99.90;;;;;;5093589;28;19928;-52
2021/11/25 05:12:57;;;;;;;;;;;3.50;99.90;;;;;;5088614;28;19928;-52
2021/11/25 05:15:24;;;;;;;;;;;3.60;99.90;;;;;;5074038;28;20004;-51
2021/11/25 05:17:51;;;;;;;;;;;3.30;99.90;;;;;;5080515;28;20382;-52
2021/11/25 05:20:18;;;;;;;;;;;3.40;99.90;;;;;;5092648;28;19971;-52
2021/11/25 05:22:45;;;;;;;;;;;3.40;99.90;;;;;;5092721;28;19927;-52
2021/11/25 05:25:13;;;;;;;;;;;3.40;99.90;;;;;;5093012;28;19924;-52
2021/11/25 05:27:43;;;;;;;;;;;3.40;99.90;;;;;;5092551;28;20126;-51
2021/11/25 05:30:12;;;;;;;;;;;3.40;99.90;;;;;;5092998;28;19924;-52
2021/11/25 05:32:42;;;;;;;;;;;3.40;99.90;;;;;;5092910;28;19924;-52
2021/11/25 05:35:11;;;;;;;;;;;3.40;99.90;;;;;;5092910;28;20361;-52
2021/11/25 05:37:39;;;;;;;;;;;3.50;99.90;;;;;;5092726;28;20003;-52
2021/11/25 05:40:07;;;;;;;;;;;3.40;99.90;;;;;;5090681;28;19928;-51
2021/11/25 05:42:35;;;;;;;;;;;3.50;99.90;;;;;;5092099;28;19970;-52
2021/11/25 05:45:03;;;;;;;;;;;3.40;99.90;;;;;;5092342;28;19931;-52
2021/11/25 05:47:33;;;;;;;;;;;3.30;99.90;;;;;;5092541;28;20393;-52
2021/11/25 05:50:00;;;;;;;;;;;3.30;99.90;;;;;;5092535;28;19931;-52
2021/11/25 05:52:27;;;;;;;;;;;3.30;99.90;;;;;;5087989;28;19970;-52
2021/11/25 05:54:54;;;;;;;;;;;3.30;99.90;;;;;;5092064;28;20015;-51
2021/11/25 05:57:20;;;;;;;;;;;3.30;99.90;;;;;;5092462;28;20015;-52
2021/11/25 05:59:47;;;;;;;;;;;3.10;99.90;;;;;;5092453;28;19978;-52
2021/11/25 06:02:15;;;;;;;;;;;3.20;99.90;;;;;;5092121;28;19924;-52
2021/11/25 06:04:43;;;;;;;;;;;3.30;99.90;;;;;;5092469;28;20309;-52
2021/11/25 06:07:10;;;;;;;;;;;3.40;99.90;;;;;;5091907;28;19924;-52
2021/11/25 06:09:39;;;;;;;;;;;3.40;99.90;;;;;;5092187;28;19928;-52
2021/11/25 06:12:06;;;;;;;;;;;3.30;99.90;;;;;;5091761;28;20014;-52
2021/11/25 06:14:33;;;;;;;;;;;3.40;99.90;;;;;;5092396;28;20015;-52
2021/11/25 06:17:01;;;;;;;;;;;3.40;99.90;;;;;;5092012;28;20347;-52
2021/11/25 06:19:28;;;;;;;;;;;3.50;99.90;;;;;;5078334;28;20012;-52
2021/11/25 06:21:56;;;;;;;;;;;3.50;99.90;;;;;;5084722;28;19973;-52
2021/11/25 06:24:23;;;;;;;;;;;3.50;99.90;;;;;;5083202;28;20455;-52
2021/11/25 06:26:50;;;;;;;;;;;3.60;99.90;;;;;;5083784;28;19946;-52
2021/11/25 06:29:17;;;;;;;;;;;3.60;99.90;;;;;;5085363;28;19924;-52
2021/11/25 06:31:44;;;;;;;;;;;3.60;99.90;;;;;;5078678;28;19977;-52
2021/11/25 06:34:11;;;;;;;;;;;3.50;99.90;;;;;;5082570;28;20564;-52
2021/11/25 06:36:37;;;;;;;;;;;3.50;99.90;;;;;;5087770;28;20310;-52
2021/11/25 06:39:06;;;;;;;;;;;3.80;99.90;;;;;;5090410;28;19924;-52
2021/11/25 06:41:33;;;;;;;;;;;3.60;99.90;;;;;;5084904;28;20386;-51
2021/11/25 06:44:00;;;;;;;;;;;3.50;99.90;;;;;;5071814;28;19925;-52
2021/11/25 06:46:27;;;;;;;;;;;3.50;99.90;;;;;;5076038;28;19933;-52
2021/11/25 06:48:53;;;;;;;;;;;3.50;99.90;;;;;;5092122;28;19978;-51
2021/11/25 06:51:20;;;;;;;;;;;3.40;99.90;;;;;;5091596;28;19927;-52
2021/11/25 06:53:47;;;;;;;;;;;3.40;99.90;;;;;;5087206;28;19928;-52
2021/11/25 06:56:15;;;;;;;;;;;3.50;99.90;;;;;;5090192;28;19974;-52
2021/11/25 06:58:42;;;;;;;;;;;3.60;99.90;;;;;;5091893;28;19970;-53
2021/11/25 07:01:09;;;;;;;;;;;3.70;99.90;;;;;;5091288;28;19928;-54
2021/11/25 07:03:36;;;;;;;;;;;3.80;99.90;;;;;;5091202;28;19965;-54
2021/11/25 07:06:03;;;;;;;;;;;3.70;99.90;;;;;;5087200;28;19970;-53
2021/11/25 07:08:30;;;;;;;;;;;3.60;99.90;;;;;;5089716;28;19986;-54
2021/11/25 07:10:58;;;;;;;;;;;3.50;99.90;;;;;;5090156;28;19924;-54
2021/11/25 07:13:27;;;;;;;;;;;3.60;99.90;;;;;;5090474;28;19931;-54
2021/11/25 07:15:54;;;;;;;;;;;3.60;99.90;;;;;;5102652;28;19989;-55
2021/11/25 07:18:20;;;;;;;;;;;3.30;99.90;;;;;;5091723;28;19928;-53
2021/11/25 07:20:47;;;;;;;;;;;3.20;99.90;;;;;;5094585;28;20451;-53
2021/11/25 07:23:14;;;;;;;;;;;3.30;99.90;;;;;;5095320;28;20404;-54
2021/11/25 07:25:41;;;;;;;;;;;3.40;99.90;;;;;;5094754;28;19978;-54
2021/11/25 07:28:07;;;;;;;;;;;3.50;99.90;;;;;;5092865;28;19924;-53
2021/11/25 07:30:36;;;;;;;;;;;3.70;99.90;;;;;;5085592;28;20398;-54
2021/11/25 07:33:02;;;;;;;;;;;3.60;99.90;;;;;;5092456;28;19989;-56
2021/11/25 07:35:29;;;;;;;;;;;3.60;99.90;;;;;;5091399;28;20437;-53
2021/11/25 07:37:57;;;;;;;;;;;3.60;99.90;;;;;;5092933;28;20474;-54
2021/11/25 07:40:24;;;;;;;;;;;3.50;99.90;;;;;;5093735;28;19959;-53
2021/11/25 07:42:52;;;;;;;;;;;3.50;99.90;;;;;;5094832;28;20297;-54
2021/11/25 07:45:19;;;;;;;;;;;3.70;99.90;;;;;;5094277;28;19924;-54
2021/11/25 07:47:47;;;;;;;;;;;3.70;99.90;;;;;;5094523;28;20352;-53
2021/11/25 07:50:17;;;;;;;;;;;3.60;99.90;;;;;;5094750;28;19932;-54
2021/11/25 07:52:44;;;;;;;;;;;3.50;99.90;;;;;;5094910;28;19924;-53
2021/11/25 07:55:12;;;;;;;;;;;3.30;99.90;;;;;;5094613;28;19969;-55
2021/11/25 07:57:39;;;;;;;;;;;3.40;99.90;;;;;;5094126;28;19940;-54
2021/11/25 08:00:07;;;;;;;;;;;3.60;99.90;;;;;;5093949;28;19939;-53
2021/11/25 08:02:34;;;;;;;;;;;3.40;99.90;;;;;;5093654;28;19966;-54
2021/11/25 08:05:02;;;;;;;;;;;3.50;99.90;;;;;;5094561;28;19924;-53
2021/11/25 08:07:28;;;;;;;;;;;3.70;99.90;;;;;;5094584;28;20355;-53
2021/11/25 08:09:55;;;;;;;;;;;3.70;99.90;;;;;;5094734;28;20320;-53
2021/11/25 08:12:22;;;;;;;;;;;3.70;99.90;;;;;;5094010;28;20409;-53
2021/11/25 08:14:49;;;;;;;;;;;3.80;99.90;;;;;;5094066;28;19989;-54
2021/11/25 08:17:15;;;;;;;;;;;3.60;99.90;;;;;;5094368;28;19932;-54
2021/11/25 08:19:43;;;;;;;;;;;3.70;99.90;;;;;;5094271;28;19924;-53
2021/11/25 08:22:13;;;;;;;;;;;3.70;99.90;;;;;;5091479;28;19960;-53
2021/11/25 08:24:40;;;;;;;;;;;3.90;99.90;;;;;;5093773;28;19924;-54
2021/11/25 08:27:07;;;;;;;;;;;3.80;99.90;;;;;;5093747;28;19951;-55
2021/11/25 08:29:34;;;;;;;;;;;3.90;99.90;;;;;;5093170;28;19947;-54
2021/11/25 08:32:01;;;;;;;;;;;3.70;99.90;;;;;;5093438;28;19977;-54
2021/11/25 08:34:29;;;;;;;;;;;3.80;99.90;;;;;;5092555;28;19951;-54
2021/11/25 08:36:56;;;;;;;;;;;3.90;99.90;;;;;;5092977;28;20013;-54
2021/11/25 08:39:25;;;;;;;;;;;3.80;99.90;;;;;;5118138;22;19931;-50
2021/11/25 08:41:52;;;;;;;;;;;3.90;99.90;;;;;;5079456;28;19986;-51
2021/11/25 08:44:18;;;;;;;;;;;4.10;99.90;;;;;;5073188;28;19924;-49
2021/11/25 08:46:45;;;;;;;;;;;4.10;99.90;;;;;;5073902;28;19933;-49
2021/11/25 08:49:12;;;;;;;;;;;4.10;99.90;;;;;;5072974;28;19928;-52
2021/11/25 08:51:39;;;;;;;;;;;4.00;99.90;;;;;;5067008;28;19954;-50
2021/11/25 08:54:06;;;;;;;;;;;4.10;99.90;;;;;;5072597;28;20298;-50
2021/11/25 08:56:34;;;;;;;;;;;4.10;99.90;;;;;;5067489;28;19948;-49
2021/11/25 08:59:01;;;;;;;;;;;4.20;99.90;;;;;;5062117;28;19928;-50
2021/11/25 09:01:35;;;;;;;;;;;4.20;99.90;;;;;;5055797;28;19936;-50
2021/11/25 09:04:02;;;;;;;;;;;4.40;99.90;;;;;;5063870;28;19924;-50
2021/11/25 09:06:48;;;;;;;;;;;4.40;99.90;;;;;;5057927;28;19924;-49
2021/11/25 09:09:15;;;;;;;;;;;4.20;99.90;;;;;;5059012;28;20008;-49
2021/11/25 09:11:44;;;;;;;;;;;4.20;99.90;;;;;;5063648;28;19947;-51
2021/11/25 09:14:11;;;;;;;;;;;4.30;99.90;;;;;;5060938;28;20023;-50
2021/11/25 09:16:37;;;;;;;;;;;4.50;99.90;;;;;;5060277;28;20317;-50
2021/11/25 09:19:04;;;;;;;;;;;4.60;99.90;;;;;;5069098;28;19928;-52
2021/11/25 09:21:31;;;;;;;;;;;4.50;99.90;;;;;;5072636;28;19967;-50
2021/11/25 09:23:58;;;;;;;;;;;4.50;99.90;;;;;;5072653;28;19982;-51
2021/11/25 09:26:25;;;;;;;;;;;4.60;99.90;;;;;;5070885;28;20015;-50
2021/11/25 09:28:57;;;;;;;;;;;4.40;99.90;;;;;;5054481;28;19951;-50
2021/11/25 09:31:24;;;;;;;;;;;4.50;99.90;;;;;;5052156;28;19925;-50
2021/11/25 09:33:51;;;;;;;;;;;4.50;99.90;;;;;;5052603;28;19929;-50
2021/11/25 09:36:18;;;;;;;;;;;4.10;99.90;;;;;;5052263;28;20422;-50
2021/11/25 09:38:45;;;;;;;;;;;4.00;99.90;;;;;;5056411;28;20401;-51
2021/11/25 09:41:12;;;;;;;;;;;4.10;99.90;;;;;;5063765;28;19928;-51
2021/11/25 09:43:40;;;;;;;;;;;4.30;99.90;;;;;;5051914;28;19948;-51
2021/11/25 09:46:08;;;;;;;;;;;4.30;99.90;;;;;;5052035;28;19925;-52
2021/11/25 09:48:37;;;;;;;;;;;4.10;99.90;;;;;;5052372;28;19929;-50
2021/11/25 09:51:05;;;;;;;;;;;4.00;99.90;;;;;;5051949;28;19925;-50
2021/11/25 09:53:32;;;;;;;;;;;4.00;99.90;;;;;;5052378;28;19931;-50
2021/11/25 09:55:59;;;;;;;;;;;4.10;99.90;;;;;;5054638;28;19967;-49
2021/11/25 09:58:27;;;;;;;;;;;4.30;99.90;;;;;;5058333;28;19931;-51
2021/11/25 10:00:55;;;;;;;;;;;4.40;99.90;;;;;;5072238;28;19928;-50
2021/11/25 10:03:23;;;;;;;;;;;4.30;99.90;;;;;;5071979;28;20394;-51
2021/11/25 10:05:51;;;;;;;;;;;4.30;99.90;;;;;;5072146;28;19928;-50
2021/11/25 10:08:26;;;;;;;;;;;4.30;99.90;;;;;;5067266;28;19928;-50
2021/11/25 10:11:01;;;;;;;;;;;4.40;99.90;;;;;;5051642;28;19933;-50
2021/11/25 10:13:34;;;;;;;;;;;4.50;99.90;;;;;;5066351;28;19978;-50
2021/11/25 10:16:00;;;;;;;;;;;4.50;99.90;;;;;;5071787;28;19928;-50
2021/11/25 10:18:33;;;;;;;;;;;4.50;99.90;;;;;;5065383;28;19925;-51
2021/11/25 10:21:02;;;;;;;;;;;4.20;99.90;;;;;;5051626;28;19925;-50
2021/11/25 10:23:30;;;;;;;;;;;4.40;99.90;;;;;;5057253;28;19929;-49
2021/11/25 10:25:58;;;;;;;;;;;4.40;99.90;;;;;;5071854;28;20333;-50
2021/11/25 10:28:30;;;;;;;;;;;4.40;99.90;;;;;;5062109;28;19925;-50
2021/11/25 10:31:00;;;;;;;;;;;4.30;99.90;;;;;;5051485;28;19925;-50
2021/11/25 10:33:30;;;;;;;;;;;4.20;99.90;;;;;;5051831;28;19929;-50
2021/11/25 10:38:45;;;;;;;;;;;4.50;99.90;;;;;;5038159;28;19921;-49
2021/11/25 10:41:13;;;;;;;;;;;4.60;99.90;;;;;;5057530;28;19964;-49
2021/11/25 10:43:40;;;;;;;;;;;4.20;99.90;;;;;;5052444;28;20020;-49
2021/11/25 10:46:08;;;;;;;;;;;4.10;99.90;;;;;;5051642;28;19987;-49
2021/11/25 10:48:41;;;;;;;;;;;4.00;99.90;;;;;;5055021;28;19928;-49
2021/11/25 10:51:32;;;;;;;;;;;4.20;99.90;;;;;;5052325;28;19928;-51
2021/11/25 10:54:02;;;;;;;;;;;4.60;99.90;;;;;;5043302;28;19936;-49
2021/11/25 10:56:39;;;;;;;;;;;4.60;99.90;;;;;;5055415;28;19928;-50
2021/11/25 10:59:06;;;;;;;;;;;4.40;99.90;;;;;;5055283;28;20451;-49
2021/11/25 11:01:34;;;;;;;;;;;4.50;99.90;;;;;;5068782;28;19978;-50
2021/11/25 11:04:03;;;;;;;;;;;4.20;99.90;;;;;;5071442;28;19925;-49
2021/11/25 11:06:30;;;;;;;;;;;4.10;99.90;;;;;;5055057;28;19925;-49
2021/11/25 11:08:57;;;;;;;;;;;4.10;99.90;;;;;;5055309;28;20366;-49
2021/11/25 11:11:24;;;;;;;;;;;4.00;99.90;;;;;;5054749;28;19925;-49
2021/11/25 11:14:12;;;;;;;;;;;4.10;99.90;;;;;;5055077;28;20288;-50
2021/11/25 11:16:46;;;;;;;;;;;4.20;99.90;;;;;;5059087;28;20417;-50
2021/11/25 11:19:15;;;;;;;;;;;4.30;99.90;;;;;;5056816;28;19932;-50
2021/11/25 11:21:43;;;;;;;;;;;4.40;99.90;;;;;;5054556;28;19939;-50
2021/11/25 11:24:10;;;;;;;;;;;4.60;99.90;;;;;;5073583;28;19935;-50
2021/11/25 11:26:39;;;;;;;;;;;4.60;99.90;;;;;;5075041;28;19924;-50
2021/11/25 11:29:05;;;;;;;;;;;4.50;99.90;;;;;;5074847;28;19925;-50
2021/11/25 11:31:33;;;;;;;;;;;4.70;99.90;;;;;;5074618;28;19928;-50
2021/11/25 11:34:00;;;;;;;;;;;4.60;99.90;;;;;;5074686;28;20010;-50
2021/11/25 11:36:29;;;;;;;;;;;4.50;99.90;;;;;;5074695;28;19925;-50
2021/11/25 11:38:57;;;;;;;;;;;4.60;99.90;;;;;;5074561;28;19924;-50
2021/11/25 11:41:25;;;;;;;;;;;4.70;99.90;;;;;;5072097;28;20356;-50
2021/11/25 11:43:52;;;;;;;;;;;4.80;99.90;;;;;;5074614;28;19929;-51
2021/11/25 11:46:18;;;;;;;;;;;4.40;99.90;;;;;;5074635;28;20536;-50
2021/11/25 11:48:46;;;;;;;;;;;4.40;99.90;;;;;;5071165;28;19925;-51
2021/11/25 11:51:14;;;;;;;;;;;4.40;99.90;;;;;;5061303;28;19924;-50
2021/11/25 11:53:43;;;;;;;;;;;4.20;99.90;;;;;;5072465;28;19928;-50
2021/11/25 11:56:12;;;;;;;;;;;3.90;99.90;;;;;;5072692;28;19974;-50
2021/11/25 11:58:40;;;;;;;;;;;3.90;99.90;;;;;;5062171;28;19925;-49
2021/11/25 12:01:19;;;;;;;;;;;4.10;99.90;;;;;;5056897;28;19925;-51
2021/11/25 12:03:47;;;;;;;;;;;4.20;99.90;;;;;;5065875;28;20306;-51
2021/11/25 12:06:29;;;;;;;;;;;4.10;99.90;;;;;;5071376;28;19990;-49
2021/11/25 12:08:58;;;;;;;;;;;4.20;99.90;;;;;;5057865;28;19932;-49
2021/11/25 12:11:35;;;;;;;;;;;4.30;99.90;;;;;;5056055;28;20308;-49
2021/11/25 12:14:17;;;;;;;;;;;4.40;99.90;;;;;;5053598;28;19925;-50
2021/11/25 12:16:49;;;;;;;;;;;4.20;99.90;;;;;;5061195;28;20390;-50
2021/11/25 12:19:22;;;;;;;;;;;4.10;99.90;;;;;;5054317;28;19932;-51
2021/11/25 12:21:50;;;;;;;;;;;4.30;99.90;;;;;;5066480;28;19929;-49
2021/11/25 12:24:21;;;;;;;;;;;4.20;99.90;;;;;;5053553;28;19947;-49
2021/11/25 12:27:13;;;;;;;;;;;4.20;99.90;;;;;;5062193;28;20379;-50
2021/11/25 12:29:43;;;;;;;;;;;4.40;99.90;;;;;;5056122;28;19932;-49
2021/11/25 12:32:26;;;;;;;;;;;4.50;99.90;;;;;;5062678;28;20480;-49
2021/11/25 12:34:53;;;;;;;;;;;4.50;99.90;;;;;;5052799;28;19931;-49
2021/11/25 12:37:40;;;;;;;;;;;4.60;99.90;;;;;;5056002;28;20310;-50
2021/11/25 12:40:09;;;;;;;;;;;4.70;99.90;;;;;;5070810;28;19931;-50
2021/11/25 12:42:35;;;;;;;;;;;4.70;99.90;;;;;;5072717;28;19947;-50
2021/11/25 12:45:02;;;;;;;;;;;4.70;99.90;;;;;;5053008;28;19932;-50
2021/11/25 12:47:29;;;;;;;;;;;4.60;99.90;;;;;;5065915;28;19928;-50
2021/11/25 12:50:11;;;;;;;;;;;4.70;99.90;;;;;;5057590;28;19932;-49
2021/11/25 12:52:37;;;;;;;;;;;4.40;99.90;;;;;;5052499;28;19925;-50
2021/11/25 12:55:05;;;;;;;;;;;4.30;99.90;;;;;;5062273;28;19924;-50
2021/11/25 12:57:47;;;;;;;;;;;4.30;99.90;;;;;;5072419;28;20429;-51
2021/11/25 13:00:18;;;;;;;;;;;4.30;99.90;;;;;;5059859;28;20402;-51
2021/11/25 13:02:45;;;;;;;;;;;4.50;99.90;;;;;;5065401;28;20390;-49
2021/11/25 13:05:12;;;;;;;;;;;4.20;99.90;;;;;;5059220;28;19925;-49
2021/11/25 13:07:49;;;;;;;;;;;4.30;99.90;;;;;;5052726;28;20310;-50
2021/11/25 13:10:23;;;;;;;;;;;4.30;99.90;;;;;;5052818;28;19931;-49
2021/11/25 13:12:50;;;;;;;;;;;4.40;99.90;;;;;;5053896;28;19925;-49
2021/11/25 13:15:18;;;;;;;;;;;4.70;99.90;;;;;;5056961;28;19932;-51
2021/11/25 13:17:56;;;;;;;;;;;4.70;99.90;;;;;;5070888;28;19924;-50
2021/11/25 13:20:41;;;;;;;;;;;4.50;99.90;;;;;;5066717;28;19986;-50
2021/11/25 13:23:08;;;;;;;;;;;4.30;99.90;;;;;;5071935;28;20390;-50
2021/11/25 13:25:35;;;;;;;;;;;4.40;99.90;;;;;;5065550;28;19925;-49
2021/11/25 13:28:02;;;;;;;;;;;4.40;99.90;;;;;;5053615;28;20439;-49
2021/11/25 13:30:30;;;;;;;;;;;4.30;99.90;;;;;;5071012;28;19947;-49
2021/11/25 13:32:57;;;;;;;;;;;4.20;99.90;;;;;;5071824;28;19924;-49
2021/11/25 13:35:23;;;;;;;;;;;4.00;99.90;;;;;;5067021;28;19936;-50
2021/11/25 13:37:52;;;;;;;;;;;4.20;99.90;;;;;;5055095;28;19979;-50
2021/11/25 13:40:21;;;;;;;;;;;4.20;99.90;;;;;;5054443;28;20311;-51
2021/11/25 13:42:52;;;;;;;;;;;4.30;99.90;;;;;;5052454;28;19925;-50
2021/11/25 13:45:21;;;;;;;;;;;4.30;99.90;;;;;;5071092;28;19924;-48
2021/11/25 13:47:51;;;;;;;;;;;4.50;99.90;;;;;;5072116;28;19947;-50
2021/11/25 13:50:19;;;;;;;;;;;4.60;99.90;;;;;;5055336;28;20280;-50
2021/11/25 13:52:48;;;;;;;;;;;4.60;99.90;;;;;;5072320;28;19978;-50
2021/11/25 13:55:16;;;;;;;;;;;4.40;99.90;;;;;;5070923;28;19970;-50
2021/11/25 13:57:45;;;;;;;;;;;4.10;99.90;;;;;;5063137;28;19932;-48
2021/11/25 14:00:13;;;;;;;;;;;4.20;99.90;;;;;;5067465;28;20365;-48
2021/11/25 14:02:40;;;;;;;;;;;4.20;99.90;;;;;;5071864;28;19928;-48
2021/11/25 14:05:10;;;;;;;;;;;4.10;99.90;;;;;;5071664;28;20601;-48
2021/11/25 14:07:37;;;;;;;;;;;4.00;99.90;;;;;;5058780;28;19978;-48
2021/11/25 14:10:06;;;;;;;;;;;4.10;99.90;;;;;;5057267;28;19925;-47
2021/11/25 14:12:33;;;;;;;;;;;4.20;99.90;;;;;;5051717;28;20417;-49
2021/11/25 14:15:00;;;;;;;;;;;4.30;99.90;;;;;;5051931;28;19929;-47
2021/11/25 14:17:27;;;;;;;;;;;4.20;99.90;;;;;;5051819;28;19964;-49
2021/11/25 14:19:55;;;;;;;;;;;4.30;99.90;;;;;;5052128;28;19928;-49
2021/11/25 14:22:24;;;;;;;;;;;4.30;99.90;;;;;;5051629;28;20362;-49
2021/11/25 14:24:52;;;;;;;;;;;4.40;99.90;;;;;;5051761;28;19929;-49
2021/11/25 14:30:07;;;;;;;;;;;3.80;99.90;;;;;;5056110;28;19928;-50
2021/11/25 14:32:40;;;;;;;;;;;3.90;99.90;;;;;;5055749;28;20015;-49
2021/11/25 14:35:07;;;;;;;;;;;4.10;99.90;;;;;;5055813;28;19931;-50
2021/11/25 14:37:39;;;;;;;;;;;4.10;99.90;;;;;;5055675;28;19932;-51
2021/11/25 14:40:10;;;;;;;;;;;4.30;99.90;;;;;;5069070;28;19935;-50
2021/11/25 14:42:36;;;;;;;;;;;4.40;99.90;;;;;;5127308;22;19923;-53
2021/11/25 14:45:09;;;;;;;;;;;4.30;99.90;;;;;;5136731;27;20436;-53